Time;durP1;ratioP1;P1;durP2;ratioP2;P2;SDS_P1;SDS_P2;PMS_P1;PMS_P2;Temp;Humidity;BMP_temperature;BMP_pressure;BME280_temperature;BME280_humidity;BME280_pressure;Samples;Min_cycle;Max_cycle;Signal;HPM_P1;HPM_P2
2021/03/19 00:00:59;;;;;;;47.90;21.83;;;;;;;1.10;78.24;100378.97;124664;1111;23015;-59
2021/03/19 00:03:28;;;;;;;49.37;23.57;;;;;;;1.07;78.32;100372.34;124879;1110;23154;-59
2021/03/19 00:05:58;;;;;;;49.40;23.13;;;;;;;1.07;78.26;100377.84;124790;1111;23069;-58
2021/03/19 00:08:27;;;;;;;49.90;23.53;;;;;;;1.07;78.80;100374.31;124967;1110;22975;-60
2021/03/19 00:10:56;;;;;;;55.73;25.00;;;;;;;1.06;78.72;100375.48;124825;1110;25585;-58
2021/03/19 00:13:25;;;;;;;50.17;23.23;;;;;;;1.09;78.18;100377.42;124947;1112;22995;-60
2021/03/19 00:15:58;;;;;;;49.13;24.43;;;;;;;1.08;78.48;100379.39;124890;1110;23090;-60
2021/03/19 00:18:27;;;;;;;56.00;24.40;;;;;;;1.08;78.25;100373.89;124895;1110;22971;-58
2021/03/19 00:20:57;;;;;;;46.70;22.77;;;;;;;1.07;78.26;100369.59;125047;1110;23031;-59
2021/03/19 00:23:26;;;;;;;59.03;24.30;;;;;;;1.04;78.14;100369.63;124826;1111;25429;-60
2021/03/19 00:25:55;;;;;;;52.93;25.80;;;;;;;0.99;78.72;100367.34;124774;1112;23045;-62
2021/03/19 00:28:24;;;;;;;51.03;25.23;;;;;;;0.97;78.27;100369.72;124833;1112;24563;-60
2021/03/19 00:30:54;;;;;;;51.30;24.87;;;;;;;0.97;78.23;100362.27;124916;1111;23116;-61
2021/03/19 00:33:23;;;;;;;59.83;27.80;;;;;;;0.97;78.94;100364.23;124771;1111;23083;-59
2021/03/19 00:35:52;;;;;;;65.40;31.57;;;;;;;0.95;78.91;100361.11;124795;1110;26559;-61
2021/03/19 00:38:23;;;;;;;77.43;35.13;;;;;;;0.91;79.05;100366.63;125041;1111;28709;-59
2021/03/19 00:40:52;;;;;;;77.67;36.97;;;;;;;0.89;79.16;100355.27;125052;1112;26107;-60
2021/03/19 00:43:21;;;;;;;76.83;35.33;;;;;;;0.89;78.96;100357.25;125012;1111;23024;-59
2021/03/19 00:45:51;;;;;;;78.10;34.23;;;;;;;0.90;78.36;100356.05;124897;1111;23067;-63
2021/03/19 00:48:20;;;;;;;75.30;34.30;;;;;;;0.90;78.52;100353.30;124954;1112;26396;-58
2021/03/19 00:50:49;;;;;;;75.43;34.17;;;;;;;0.89;78.30;100354.51;124780;1111;23608;-60
2021/03/19 00:53:18;;;;;;;68.47;32.47;;;;;;;0.91;78.86;100352.13;124943;1111;23068;-59
2021/03/19 00:55:48;;;;;;;78.05;35.60;;;;;;;0.88;78.75;100350.19;124816;1111;23046;-60
2021/03/19 00:58:17;;;;;;;74.53;34.18;;;;;;;0.87;78.90;100348.64;124829;1112;27361;-59
2021/03/19 01:00:47;;;;;;;69.53;32.20;;;;;;;0.83;79.14;100349.45;124802;1111;26544;-59
2021/03/19 01:03:16;;;;;;;74.43;33.57;;;;;;;0.84;79.10;100352.98;124922;1111;27298;-58
2021/03/19 01:05:47;;;;;;;78.30;33.43;;;;;;;0.84;78.84;100350.23;125005;1112;23026;-59
2021/03/19 01:08:17;;;;;;;77.50;34.17;;;;;;;0.77;79.44;100342.85;124818;1111;23138;-60
2021/03/19 01:10:49;;;;;;;71.53;32.53;;;;;;;0.74;79.20;100349.19;124832;1110;23014;-58
2021/03/19 01:13:19;;;;;;;76.37;34.13;;;;;;;0.71;79.79;100344.49;125037;1112;24612;-58
2021/03/19 01:15:48;;;;;;;75.78;31.77;;;;;;;0.63;79.14;100345.77;125011;1112;23216;-58
2021/03/19 01:18:21;;;;;;;79.37;30.10;;;;;;;0.51;80.16;100342.76;124833;1110;26399;-61
2021/03/19 01:20:51;;;;;;;81.95;31.30;;;;;;;0.39;79.98;100346.81;124868;1111;23080;-63
2021/03/19 01:23:21;;;;;;;82.05;35.25;;;;;;;0.31;79.78;100345.30;124897;1112;23219;-61
2021/03/19 01:25:51;;;;;;;78.22;31.15;;;;;;;0.26;79.79;100343.02;124976;1110;27476;-62
2021/03/19 01:28:20;;;;;;;77.57;30.97;;;;;;;0.28;80.16;100345.34;124882;1112;23335;-59
2021/03/19 01:30:49;;;;;;;83.15;34.78;;;;;;;0.31;80.31;100348.05;124925;1110;23005;-60
2021/03/19 01:33:19;;;;;;;96.53;34.10;;;;;;;0.30;80.26;100354.73;124984;1111;23199;-58
2021/03/19 01:35:48;;;;;;;101.90;36.80;;;;;;;0.27;79.80;100354.78;125133;1112;23023;-56
2021/03/19 01:38:18;;;;;;;88.13;33.67;;;;;;;0.23;80.09;100359.52;124809;1112;23060;-58
2021/03/19 01:40:49;;;;;;;94.65;35.20;;;;;;;0.20;80.11;100357.58;124995;1110;23018;-60
2021/03/19 01:43:18;;;;;;;82.13;33.80;;;;;;;0.12;79.85;100354.12;124813;1112;23107;-59
2021/03/19 01:46:19;;;;;;;84.40;32.67;;;;;;;0.06;80.31;100360.45;124951;1111;23026;-58
2021/03/19 01:49:26;;;;;;;88.90;33.15;;;;;;;0.02;80.64;100365.98;124755;1111;23136;-59
2021/03/19 01:52:31;;;;;;;94.10;33.30;;;;;;;-0.07;80.87;100357.42;125034;1111;23027;-60
2021/03/19 01:55:36;;;;;;;80.57;34.60;;;;;;;-0.08;80.72;100356.63;124922;1111;22975;-58
2021/03/19 01:58:41;;;;;;;96.30;35.40;;;;;;;-0.09;80.25;100362.53;124854;1111;23000;-59
2021/03/19 02:01:46;;;;;;;85.30;35.35;;;;;;;-0.12;80.37;100358.63;124984;1110;22979;-59
2021/03/19 02:04:52;;;;;;;83.97;35.53;;;;;;;-0.10;80.57;100367.23;124923;1112;23055;-58
2021/03/19 02:07:57;;;;;;;76.23;29.77;;;;;;;-0.10;80.94;100360.95;124817;1112;23015;-59
2021/03/19 02:11:02;;;;;;;67.07;29.30;;;;;;;-0.16;81.01;100357.09;124849;1110;23039;-59
2021/03/19 02:14:06;;;;;;;61.60;26.10;;;;;;;-0.20;80.50;100356.34;124857;1112;27226;-59
2021/03/19 02:17:11;;;;;;;64.67;28.40;;;;;;;-0.20;81.42;100367.31;124817;1110;23027;-60
2021/03/19 02:20:16;;;;;;;60.75;27.25;;;;;;;-0.17;80.64;100361.03;124771;1111;23070;-59
2021/03/19 02:23:21;;;;;;;69.45;28.65;;;;;;;-0.16;80.77;100362.58;124941;1111;26478;-59
2021/03/19 02:26:26;;;;;;;60.60;27.13;;;;;;;-0.19;80.33;100355.92;124999;1112;23070;-62
2021/03/19 02:29:31;;;;;;;69.83;29.73;;;;;;;-0.19;80.40;100357.91;124822;1110;23219;-58
2021/03/19 02:32:11;;;;;;;63.33;25.70;;;;;;;-0.28;81.00;100347.39;124903;1112;22971;-58
2021/03/19 02:34:44;;;;;;;67.50;26.27;;;;;;;-0.36;81.00;100356.86;124992;1111;24609;-61
2021/03/19 02:37:16;;;;;;;68.67;26.87;;;;;;;-0.40;81.05;100355.31;125002;1111;23072;-57
2021/03/19 02:39:46;;;;;;;65.83;27.23;;;;;;;-0.41;80.88;100353.73;125073;1112;23479;-58
2021/03/19 02:42:18;;;;;;;62.38;27.93;;;;;;;-0.42;81.30;100354.94;124891;1111;23664;-58
2021/03/19 02:44:48;;;;;;;70.40;27.23;;;;;;;-0.48;80.30;100359.28;124984;1112;24854;-58
2021/03/19 02:47:18;;;;;;;70.60;27.97;;;;;;;-0.48;80.84;100351.06;125108;1111;23023;-58
2021/03/19 02:49:48;;;;;;;77.07;29.07;;;;;;;-0.46;80.93;100356.92;124866;1112;23023;-58
2021/03/19 02:52:20;;;;;;;68.15;29.37;;;;;;;-0.44;80.58;100360.04;124880;1112;23026;-58
2021/03/19 02:54:49;;;;;;;69.13;29.47;;;;;;;-0.43;80.82;100361.59;124817;1110;22990;-58
2021/03/19 02:57:19;;;;;;;65.17;27.20;;;;;;;-0.45;80.77;100366.70;124985;1110;23164;-61
2021/03/19 02:59:48;;;;;;;67.47;27.97;;;;;;;-0.47;81.28;100363.57;125023;1110;23070;-60
2021/03/19 03:02:17;;;;;;;64.37;28.67;;;;;;;-0.48;81.13;100375.73;124924;1110;23069;-60
2021/03/19 03:04:48;;;;;;;70.73;27.73;;;;;;;-0.51;81.37;100362.81;125052;1111;23217;-61
2021/03/19 03:07:26;;;;;;;69.80;28.80;;;;;;;-0.55;80.97;100371.08;124983;1111;24363;-58
2021/03/19 03:09:55;;;;;;;64.57;28.43;;;;;;;-0.60;80.37;100362.50;124896;1110;23344;-59
2021/03/19 03:12:27;;;;;;;73.57;28.07;;;;;;;-0.65;80.33;100371.13;124830;1111;23067;-58
2021/03/19 03:14:57;;;;;;;73.40;28.40;;;;;;;-0.74;81.11;100374.30;124927;1110;23033;-60
2021/03/19 03:17:27;;;;;;;65.50;29.63;;;;;;;-0.77;80.58;100369.64;125082;1111;23030;-58
2021/03/19 03:19:56;;;;;;;62.33;24.30;;;;;;;-0.76;80.64;100373.14;124772;1111;23222;-57
2021/03/19 03:22:25;;;;;;;61.40;27.50;;;;;;;-0.84;81.09;100377.88;124884;1110;25928;-58
2021/03/19 03:24:54;;;;;;;62.50;26.67;;;;;;;-0.84;81.19;100380.63;124853;1111;23006;-60
2021/03/19 03:27:24;;;;;;;66.30;26.17;;;;;;;-0.92;81.33;100381.84;125042;1110;23029;-57
2021/03/19 03:29:53;;;;;;;70.95;26.73;;;;;;;-0.97;81.51;100385.77;124915;1111;23107;-58
2021/03/19 03:32:22;;;;;;;65.53;25.97;;;;;;;-1.00;81.16;100381.09;124889;1112;23017;-58
2021/03/19 03:34:52;;;;;;;66.60;28.73;;;;;;;-1.03;81.67;100384.62;124792;1112;23027;-58
2021/03/19 03:37:21;;;;;;;62.53;28.70;;;;;;;-1.05;81.72;100381.50;124816;1112;23048;-60
2021/03/19 03:39:50;;;;;;;68.60;27.50;;;;;;;-1.05;80.99;100386.98;124811;1110;23010;-59
2021/03/19 03:42:19;;;;;;;72.50;29.97;;;;;;;-1.08;81.13;100376.04;124491;1110;23542;-60
2021/03/19 03:44:49;;;;;;;57.00;24.20;;;;;;;-1.07;81.79;100383.85;124368;1111;23074;-60
2021/03/19 03:47:18;;;;;;;65.70;27.90;;;;;;;-1.10;81.38;100384.66;124880;1110;23018;-57
2021/03/19 03:49:48;;;;;;;64.58;27.30;;;;;;;-1.12;81.00;100381.51;125148;1112;27295;-58
2021/03/19 03:52:17;;;;;;;67.67;29.30;;;;;;;-1.10;81.39;100381.92;124764;1112;24553;-58
2021/03/19 03:54:46;;;;;;;70.83;29.07;;;;;;;-1.05;81.78;100392.45;124821;1111;23010;-59
2021/03/19 03:57:16;;;;;;;75.17;30.17;;;;;;;-1.01;81.72;100401.44;125111;1112;27337;-58
2021/03/19 03:59:46;;;;;;;71.02;30.52;;;;;;;-1.00;81.43;100396.75;124806;1110;23100;-59
2021/03/19 04:02:19;;;;;;;;;;;;;;;-0.99;81.13;100396.34;124943;1110;26392;-59
2021/03/19 04:04:49;;;;;;;78.95;30.15;;;;;;;-0.97;81.80;100393.98;124920;1111;24187;-58
2021/03/19 04:07:20;;;;;;;78.28;31.33;;;;;;;-1.00;81.31;100383.05;125615;1110;25698;-58
2021/03/19 04:09:52;;;;;;;72.83;30.83;;;;;;;-1.01;81.87;100390.48;124917;1111;23074;-60
2021/03/19 04:12:21;;;;;;;76.60;33.70;;;;;;;-1.03;81.56;100390.09;124945;1110;23071;-60
2021/03/19 04:14:51;;;;;;;72.43;30.00;;;;;;;-1.04;81.74;100391.30;125029;1112;23068;-61
2021/03/19 04:17:31;;;;;;;75.73;29.83;;;;;;;-1.09;80.92;100391.69;124842;1111;28171;-55
2021/03/19 04:20:03;;;;;;;68.83;31.23;;;;;;;-1.12;81.43;100402.66;124886;1111;23005;-60
2021/03/19 04:22:33;;;;;;;66.73;28.93;;;;;;;-1.13;81.02;100404.62;124888;1110;23084;-59
2021/03/19 04:25:03;;;;;;;67.40;31.10;;;;;;;-1.14;81.02;100411.26;124848;1111;23164;-59
2021/03/19 04:27:36;;;;;;;72.85;31.55;;;;;;;-1.17;81.33;100400.32;124695;1112;23090;-63
2021/03/19 04:30:07;;;;;;;70.10;30.50;;;;;;;-1.18;81.19;100398.78;128378;1111;23938;-60
2021/03/19 04:32:36;;;;;;;78.53;31.67;;;;;;;-1.16;81.01;100402.66;125994;1111;24623;-60
2021/03/19 04:35:07;;;;;;;78.17;33.63;;;;;;;-1.11;81.12;100396.78;128391;1111;22767;-61
2021/03/19 04:37:36;;;;;;;74.40;33.23;;;;;;;-1.05;81.64;100397.15;128365;1110;23977;-59
2021/03/19 04:40:09;;;;;;;73.57;33.57;;;;;;;-1.02;81.67;100390.89;127283;1111;23261;-61
2021/03/19 04:42:39;;;;;;;82.90;34.23;;;;;;;-0.97;80.92;100393.20;125048;1111;27848;-57
2021/03/19 04:45:12;;;;;;;71.70;30.60;;;;;;;-0.95;81.42;100397.11;124964;1110;23014;-58
2021/03/19 04:47:42;;;;;;;72.20;31.17;;;;;;;-0.96;80.41;100400.25;124886;1112;23186;-66
2021/03/19 04:50:15;;;;;;;83.45;33.80;;;;;;;-1.03;80.45;100400.27;124733;1111;23225;-59
2021/03/19 04:52:44;;;;;;;77.07;32.80;;;;;;;-1.04;81.21;100404.20;124921;1111;23005;-59
2021/03/19 04:55:15;;;;;;;74.63;31.73;;;;;;;-1.14;81.03;100399.55;124764;1111;23067;-61
2021/03/19 04:57:45;;;;;;;74.57;30.33;;;;;;;-1.25;80.45;100407.78;125048;1112;26441;-59
2021/03/19 05:00:16;;;;;;;77.87;30.00;;;;;;;-1.35;80.74;100405.86;125007;1110;27371;-60
2021/03/19 05:02:48;;;;;;;78.20;30.77;;;;;;;-1.39;80.85;100410.56;124945;1112;23141;-58
2021/03/19 05:05:23;;;;;;;71.60;31.77;;;;;;;-1.41;81.63;100404.70;124880;1110;23014;-60
2021/03/19 05:07:54;;;;;;;81.20;32.10;;;;;;;-1.43;81.48;100407.05;124869;1110;23014;-59
2021/03/19 05:10:24;;;;;;;;;;;;;;;-1.46;81.10;100410.56;125036;1111;23079;-58
2021/03/19 05:12:54;;;;;;;81.12;32.03;;;;;;;-1.47;81.55;100416.44;124932;1112;21532;-57
2021/03/19 05:15:25;;;;;;;90.30;34.03;;;;;;;-1.46;81.09;100410.56;125010;1110;23108;-59
2021/03/19 05:17:54;;;;;;;71.60;30.00;;;;;;;-1.45;80.98;100412.14;124998;1111;24372;-58
2021/03/19 05:20:24;;;;;;;75.23;31.30;;;;;;;-1.41;81.35;100415.66;124845;1111;23219;-60
2021/03/19 05:22:54;;;;;;;82.43;32.07;;;;;;;-1.36;81.12;100414.45;125042;1112;23016;-59
2021/03/19 05:25:28;;;;;;;75.67;31.37;;;;;;;-1.37;81.66;100412.90;125082;1111;23078;-59
2021/03/19 05:27:58;;;;;;;79.87;30.70;;;;;;;-1.37;81.34;100407.42;124922;1111;23007;-57
2021/03/19 05:30:29;;;;;;;76.15;33.45;;;;;;;-1.36;81.46;100417.19;125060;1112;23229;-61
2021/03/19 05:32:56;;;;;;;;;;;;;;;-1.33;81.20;100414.46;124899;1110;23071;-61
2021/03/19 05:35:26;;;;;;;80.95;32.95;;;;;;;-1.35;81.64;100422.30;124828;1110;21533;-59
2021/03/19 05:37:57;;;;;;;81.42;32.55;;;;;;;-1.38;81.30;100419.54;125241;1111;23226;-59
2021/03/19 05:40:32;;;;;;;;;;;;;;;-1.45;80.83;100428.57;124902;1110;23073;-59
2021/03/19 05:43:29;;;;;;;88.60;32.53;;;;;;;-1.53;80.75;100428.97;124768;1112;21532;-60
2021/03/19 05:46:03;;;;;;;85.00;33.60;;;;;;;-1.56;81.82;100421.53;124921;1111;23191;-59
2021/03/19 05:48:49;;;;;;;86.70;34.83;;;;;;;-1.55;81.95;100421.13;124884;1110;27224;-59
2021/03/19 05:51:35;;;;;;;88.17;35.40;;;;;;;-1.53;81.91;100420.75;124948;1112;23066;-58
2021/03/19 05:54:21;;;;;;;83.50;37.03;;;;;;;-1.52;82.14;100417.61;124898;1112;23009;-59
2021/03/19 05:57:08;;;;;;;80.07;32.73;;;;;;;-1.46;82.12;100416.04;124921;1111;25667;-61
2021/03/19 05:59:39;;;;;;;84.03;32.50;;;;;;;-1.44;81.27;100426.59;124912;1112;22978;-59
2021/03/19 06:02:20;;;;;;;82.00;34.07;;;;;;;-1.46;81.33;100423.47;124878;1110;23014;-61
2021/03/19 06:05:04;;;;;;;72.05;31.75;;;;;;;-1.45;81.78;100423.09;124955;1111;26026;-59
2021/03/19 06:07:52;;;;;;;81.97;33.33;;;;;;;-1.40;81.82;100428.16;125247;1111;22951;-59
2021/03/19 06:10:36;;;;;;;84.17;35.23;;;;;;;-1.38;82.23;100423.06;124848;1112;24335;-58
2021/03/19 06:13:19;;;;;;;80.97;32.07;;;;;;;-1.36;82.15;100428.14;124825;1111;23077;-57
2021/03/19 06:15:51;;;;;;;86.77;34.50;;;;;;;-1.39;81.58;100426.99;124880;1111;23024;-61
2021/03/19 06:18:26;;;;;;;74.30;32.87;;;;;;;-1.33;81.85;100432.84;124831;1112;23014;-59
2021/03/19 06:21:02;;;;;;;77.20;31.87;;;;;;;-1.33;81.95;100439.11;124754;1110;23216;-60
2021/03/19 06:23:33;;;;;;;79.10;32.93;;;;;;;-1.38;81.32;100428.54;124788;1110;23084;-58
2021/03/19 06:26:06;;;;;;;87.27;35.43;;;;;;;-1.38;81.93;100428.54;124956;1111;23019;-61
2021/03/19 06:28:38;;;;;;;91.37;38.53;;;;;;;-1.35;82.52;100427.77;124939;1111;23186;-61
2021/03/19 06:31:20;;;;;;;84.43;37.97;;;;;;;-1.28;81.69;100424.23;127222;1111;26569;-61
2021/03/19 06:34:05;;;;;;;93.20;40.70;;;;;;;-1.23;82.06;100427.34;128192;1111;22836;-61
2021/03/19 06:36:49;;;;;;;95.13;42.13;;;;;;;-1.21;82.17;100429.68;124467;1110;23033;-61
2021/03/19 06:39:23;;;;;;;102.37;45.00;;;;;;;-1.14;82.19;100438.66;128216;1110;22896;-60
2021/03/19 06:42:08;;;;;;;96.50;44.00;;;;;;;-1.07;81.85;100435.91;128196;1111;22820;-61
2021/03/19 06:44:37;;;;;;;94.73;44.37;;;;;;;-1.00;82.71;100437.84;128165;1111;22814;-61
2021/03/19 06:47:13;;;;;;;98.65;45.95;;;;;;;-0.94;82.18;100442.53;128217;1111;22885;-61
2021/03/19 06:49:51;;;;;;;93.63;39.90;;;;;;;-0.92;82.77;100440.17;128164;1111;22997;-59
2021/03/19 06:52:29;;;;;;;82.83;34.97;;;;;;;-0.91;82.85;100446.45;128137;1111;23031;-60
2021/03/19 06:55:00;;;;;;;80.37;35.33;;;;;;;-0.88;82.67;100445.64;128107;1111;22820;-59
2021/03/19 06:57:44;;;;;;;78.87;36.40;;;;;;;-0.87;82.62;100447.22;128164;1111;23187;-59
2021/03/19 07:00:32;;;;;;;93.30;40.33;;;;;;;-0.88;82.68;100449.16;128110;1111;22888;-58
2021/03/19 07:03:13;;;;;;;87.13;36.40;;;;;;;-0.85;82.45;100456.58;128128;1111;22942;-59
2021/03/19 07:06:05;;;;;;;86.97;38.77;;;;;;;-0.82;82.19;100458.54;128195;1112;22902;-60
2021/03/19 07:08:42;;;;;;;84.65;35.85;;;;;;;-0.71;82.80;100463.20;128186;1111;22903;-59
2021/03/19 07:11:37;;;;;;;75.10;34.33;;;;;;;-0.69;82.79;100455.36;128130;1111;22808;-60
2021/03/19 07:14:30;;;;;;;80.83;36.23;;;;;;;-0.65;81.83;100459.66;128161;1112;22981;-59
2021/03/19 07:17:11;;;;;;;70.83;32.20;;;;;;;-0.62;81.92;100467.06;128148;1111;22920;-58
2021/03/19 07:19:52;;;;;;;73.47;33.47;;;;;;;-0.60;82.02;100469.44;128121;1111;22884;-60
2021/03/19 07:22:37;;;;;;;76.67;35.97;;;;;;;-0.58;82.59;100472.56;128146;1110;22991;-59
2021/03/19 07:25:29;;;;;;;80.53;37.93;;;;;;;-0.52;82.49;100473.70;128121;1110;22888;-59
2021/03/19 07:28:19;;;;;;;84.80;39.77;;;;;;;-0.45;82.09;100476.39;128148;1111;22986;-61
2021/03/19 07:31:03;;;;;;;80.65;36.38;;;;;;;-0.39;82.62;100488.52;127831;1114;26043;-58
2021/03/19 07:33:51;;;;;;;84.30;36.87;;;;;;;-0.33;82.56;100481.45;127851;1115;23179;-60
2021/03/19 07:36:33;;;;;;;72.07;32.90;;;;;;;-0.27;82.75;100482.59;127863;1113;24089;-59
2021/03/19 07:39:32;;;;;;;73.73;30.77;;;;;;;-0.28;81.83;100486.52;127871;1113;22904;-61
2021/03/19 07:42:12;;;;;;;71.00;31.83;;;;;;;-0.31;81.47;100490.83;127880;1114;23047;-59
2021/03/19 07:44:53;;;;;;;77.72;36.83;;;;;;;-0.28;81.74;100490.05;127815;1114;24537;-59
2021/03/19 07:47:51;;;;;;;82.90;36.77;;;;;;;-0.22;81.88;100488.44;127873;1113;23890;-59
2021/03/19 07:50:34;;;;;;;86.13;35.57;;;;;;;-0.14;82.64;100491.91;127848;1114;24085;-61
2021/03/19 07:56:32;;;;;;;91.87;38.70;;;;;;;0.02;83.38;100492.23;124417;1109;23070;-61
2021/03/19 07:59:13;;;;;;;98.30;41.07;;;;;;;0.12;83.25;100496.88;124115;1112;23182;-60
2021/03/19 08:01:48;;;;;;;99.45;43.33;;;;;;;0.20;83.55;100492.89;128172;1111;22889;-61
2021/03/19 08:04:26;;;;;;;89.03;43.67;;;;;;;0.27;83.63;100494.81;128149;1110;22900;-60
2021/03/19 08:07:01;;;;;;;97.93;41.50;;;;;;;0.27;82.36;100498.31;128149;1111;23721;-60
2021/03/19 08:09:41;;;;;;;90.03;40.33;;;;;;;0.27;82.40;100495.57;128105;1110;22917;-59
2021/03/19 08:12:16;;;;;;;86.83;40.33;;;;;;;0.30;82.04;100503.02;128131;1111;23020;-61
2021/03/19 08:14:55;;;;;;;90.10;40.13;;;;;;;0.37;82.25;100502.19;128125;1111;23024;-61
2021/03/19 08:17:34;;;;;;;96.23;44.07;;;;;;;0.43;82.32;100495.86;128075;1111;23447;-60
2021/03/19 08:20:32;;;;;;;97.70;39.83;;;;;;;0.53;83.18;100505.20;128102;1112;22979;-61
2021/03/19 08:23:12;;;;;;;92.20;39.57;;;;;;;0.63;82.82;100502.36;128077;1112;24195;-61
2021/03/19 08:25:44;;;;;;;91.53;41.75;;;;;;;0.74;83.39;100499.53;128126;1111;22843;-61
2021/03/19 08:28:21;;;;;;;96.13;42.20;;;;;;;0.87;82.78;100502.55;128110;1111;22835;-62
2021/03/19 08:31:00;;;;;;;84.17;38.40;;;;;;;0.94;82.14;100502.47;128003;1112;29857;-61
2021/03/19 08:33:48;;;;;;;80.33;36.37;;;;;;;0.94;81.93;100503.26;128001;1111;22840;-61
2021/03/19 08:36:26;;;;;;;77.43;36.60;;;;;;;1.00;81.90;100507.12;127974;1112;22900;-61
2021/03/19 08:39:01;;;;;;;88.13;40.93;;;;;;;1.04;81.89;100509.83;128018;1111;22938;-62
2021/03/19 08:41:38;;;;;;;83.30;39.37;;;;;;;1.01;81.74;100499.66;128006;1112;22918;-61
2021/03/19 08:44:12;;;;;;;82.23;37.77;;;;;;;1.01;81.44;100508.70;128020;1111;22870;-61
2021/03/19 08:46:46;;;;;;;83.60;39.30;;;;;;;1.03;81.46;100511.03;128154;1111;23534;-62
2021/03/19 08:49:34;;;;;;;85.43;39.63;;;;;;;1.06;82.27;100513.73;128151;1111;22839;-61
2021/03/19 08:52:22;;;;;;;81.57;36.80;;;;;;;1.16;82.24;100509.33;128148;1111;22887;-61
2021/03/19 08:55:22;;;;;;;78.33;34.67;;;;;;;1.28;81.96;100506.05;128167;1111;23198;-61
2021/03/19 08:57:53;;;;;;;80.97;35.23;;;;;;;1.37;82.15;100517.33;128130;1111;22853;-62
2021/03/19 09:00:54;;;;;;;84.13;36.97;;;;;;;1.38;81.28;100518.91;128108;1112;22882;-60
2021/03/19 09:03:57;;;;;;;91.67;39.50;;;;;;;1.44;82.24;100509.80;128140;1111;23594;-62
2021/03/19 09:06:36;;;;;;;92.90;41.03;;;;;;;1.51;81.31;100506.19;128138;1112;22926;-61
2021/03/19 09:09:36;;;;;;;92.30;41.43;;;;;;;1.48;81.59;100509.75;128135;1111;22874;-61
2021/03/19 09:12:17;;;;;;;84.47;37.85;;;;;;;1.56;81.92;100505.72;128180;1111;23560;-61
2021/03/19 09:14:54;;;;;;;85.20;39.53;;;;;;;1.62;81.43;100510.36;127677;1112;23023;-58
2021/03/19 09:17:50;;;;;;;84.90;37.57;;;;;;;1.67;81.01;100503.62;128080;1111;24156;-58
2021/03/19 09:20:40;;;;;;;80.03;35.17;;;;;;;1.75;81.37;100496.05;128083;1111;22880;-57
2021/03/19 09:23:24;;;;;;;99.00;41.02;;;;;;;1.84;81.84;100502.63;128121;1111;22914;-59
2021/03/19 09:25:57;;;;;;;88.70;38.57;;;;;;;1.95;81.31;100502.45;128114;1111;23660;-58
2021/03/19 09:29:06;;;;;;;85.97;38.73;;;;;;;2.02;81.53;100502.37;128161;1112;22858;-57
2021/03/19 09:31:45;;;;;;;82.93;36.13;;;;;;;2.13;81.16;100506.52;127971;1111;29263;-57
2021/03/19 09:34:24;;;;;;;83.27;36.20;;;;;;;2.22;80.86;100506.00;128090;1110;24334;-58
2021/03/19 09:37:32;;;;;;;74.50;33.47;;;;;;;2.29;80.74;100503.94;128015;1111;22823;-58
2021/03/19 09:40:14;;;;;;;60.00;28.93;;;;;;;2.38;79.40;100509.69;128110;1111;22920;-58
2021/03/19 09:42:58;;;;;;;64.40;30.25;;;;;;;2.41;79.36;100508.86;128141;1112;23262;-57
2021/03/19 09:45:47;;;;;;;60.67;27.53;;;;;;;2.48;78.99;100505.98;128106;1111;22991;-58
2021/03/19 09:48:32;;;;;;;60.83;28.67;;;;;;;2.55;79.29;100502.34;128101;1111;22805;-59
2021/03/19 09:51:36;;;;;;;52.37;23.70;;;;;;;2.60;78.58;100506.60;128065;1111;24386;-58
2021/03/19 09:54:35;;;;;;;63.43;25.90;;;;;;;2.59;78.92;100505.06;128090;1110;22911;-59
2021/03/19 09:57:22;;;;;;;54.57;26.50;;;;;;;2.61;78.65;100519.20;128125;1111;23063;-59
2021/03/19 09:59:58;;;;;;;56.97;24.63;;;;;;;2.65;78.33;100519.92;128111;1111;22907;-59
2021/03/19 10:02:31;;;;;;;51.77;22.53;;;;;;;2.63;78.22;100514.80;128123;1111;22901;-58
2021/03/19 10:05:17;;;;;;;41.90;17.83;;;;;;;2.67;78.28;100514.77;128106;1112;23019;-60
2021/03/19 10:07:50;;;;;;;40.20;16.60;;;;;;;2.65;75.72;100509.66;128196;1111;22898;-59
2021/03/19 10:10:34;;;;;;;44.33;17.57;;;;;;;2.62;76.64;100512.47;128107;1111;24450;-60
2021/03/19 10:13:18;;;;;;;42.87;16.77;;;;;;;2.64;76.63;100512.84;128144;1111;24109;-58
2021/03/19 10:15:50;;;;;;;39.80;18.27;;;;;;;2.68;77.32;100519.06;128050;1111;22926;-59
2021/03/19 10:18:30;;;;;;;42.33;17.17;;;;;;;2.75;77.78;100516.96;128108;1111;22992;-59
2021/03/19 10:21:02;;;;;;;44.65;18.02;;;;;;;2.81;77.52;100518.07;128074;1111;23605;-58
2021/03/19 10:23:35;;;;;;;45.30;20.80;;;;;;;2.84;78.31;100519.19;128101;1111;22899;-60
2021/03/19 10:26:20;;;;;;;46.43;22.27;;;;;;;2.91;78.54;100516.31;128056;1111;23005;-59
2021/03/19 10:28:52;;;;;;;45.83;20.27;;;;;;;2.95;76.97;100517.82;128135;1112;22837;-59
2021/03/19 10:31:27;;;;;;;41.85;20.85;;;;;;;2.87;76.12;100524.66;127962;1111;32565;-60
2021/03/19 10:34:02;;;;;;;41.37;16.67;;;;;;;2.80;76.45;100527.52;128107;1111;22834;-60
2021/03/19 10:36:39;;;;;;;41.20;17.67;;;;;;;2.76;76.66;100520.50;128054;1111;23611;-58
2021/03/19 10:39:16;;;;;;;46.77;20.40;;;;;;;2.78;77.50;100521.65;128103;1111;23051;-59
2021/03/19 10:41:52;;;;;;;43.77;19.13;;;;;;;2.90;77.10;100526.56;128093;1110;23002;-59
2021/03/19 10:44:25;;;;;;;37.87;16.20;;;;;;;3.00;77.01;100520.08;128135;1111;22846;-59
2021/03/19 10:46:58;;;;;;;43.93;18.70;;;;;;;3.04;76.42;100518.03;128083;1111;22795;-59
2021/03/19 10:49:45;;;;;;;34.77;15.17;;;;;;;3.05;75.65;100521.58;128094;1111;22938;-59
2021/03/19 10:52:23;;;;;;;39.07;16.43;;;;;;;3.09;76.46;100516.77;128051;1111;23781;-59
2021/03/19 10:54:54;;;;;;;40.77;16.03;;;;;;;3.18;76.45;100514.25;128110;1111;22876;-59
2021/03/19 10:57:30;;;;;;;37.70;15.10;;;;;;;3.26;74.86;100518.44;128079;1111;24540;-59
2021/03/19 10:59:59;;;;;;;36.63;15.47;;;;;;;3.35;75.35;100517.88;128076;1111;22856;-59
2021/03/19 11:02:30;;;;;;;33.77;14.40;;;;;;;3.39;75.15;100521.36;128141;1111;22911;-59
2021/03/19 11:05:13;;;;;;;33.10;13.93;;;;;;;3.47;74.81;100517.25;128130;1111;23571;-59
2021/03/19 11:07:45;;;;;;;33.00;14.00;;;;;;;3.50;73.97;100517.17;128137;1111;22775;-60
2021/03/19 11:10:20;;;;;;;30.43;11.90;;;;;;;3.46;74.17;100521.98;128094;1111;22922;-60
2021/03/19 11:12:54;;;;;;;38.93;16.03;;;;;;;3.39;73.39;100524.11;128120;1111;22909;-60
2021/03/19 11:15:39;;;;;;;34.17;14.60;;;;;;;3.26;73.98;100524.74;128113;1111;22868;-59
2021/03/19 11:18:19;;;;;;;30.70;11.97;;;;;;;3.18;73.67;100526.08;128102;1112;22963;-59
2021/03/19 11:20:51;;;;;;;26.73;10.00;;;;;;;3.13;70.34;100528.52;128065;1111;23070;-59
2021/03/19 11:23:35;;;;;;;28.10;11.33;;;;;;;3.05;72.51;100527.09;128098;1112;22830;-59
2021/03/19 11:26:24;;;;;;;34.87;15.23;;;;;;;3.00;73.28;100522.08;128094;1111;22986;-60
2021/03/19 11:29:09;;;;;;;31.47;12.67;;;;;;;3.05;72.95;100508.58;128104;1111;22990;-59
2021/03/19 11:32:00;;;;;;;33.73;13.50;;;;;;;3.16;72.97;100516.66;127894;1111;102646;-60
2021/03/19 11:34:32;;;;;;;25.70;8.20;;;;;;;3.19;71.20;100518.55;128099;1112;23605;-59
2021/03/19 11:37:04;;;;;;;23.30;8.13;;;;;;;3.18;69.59;100517.80;128115;1112;22867;-60
2021/03/19 11:39:56;;;;;;;24.47;9.27;;;;;;;3.22;72.02;100521.27;128099;1111;23987;-60
2021/03/19 11:42:27;;;;;;;23.73;8.57;;;;;;;3.20;70.65;100512.64;128105;1111;22963;-59
2021/03/19 11:44:59;;;;;;;25.50;9.80;;;;;;;3.21;71.90;100508.66;128120;1111;22913;-59
2021/03/19 11:47:31;;;;;;;23.40;8.83;;;;;;;3.32;70.11;100513.20;128116;1111;22814;-59
2021/03/19 11:50:17;;;;;;;15.50;4.00;;;;;;;3.42;66.59;100513.00;128083;1111;22877;-59
2021/03/19 11:52:48;;;;;;;21.43;6.33;;;;;;;3.61;69.39;100517.75;128113;1111;22992;-60
2021/03/19 11:55:21;;;;;;;19.47;6.00;;;;;;;3.76;68.85;100515.48;128181;1110;22881;-59
2021/03/19 11:57:51;;;;;;;17.03;4.77;;;;;;;3.76;67.93;100513.50;128154;1111;23645;-60